Time;durP1;ratioP1;P1;durP2;ratioP2;P2;SDS_P1;SDS_P2;PMS_P1;PMS_P2;Temp;Humidity;BMP_temperature;BMP_pressure;BME280_temperature;BME280_humidity;BME280_pressure;Samples;Min_cycle;Max_cycle;Signal;HPM_P1;HPM_P2
2022/11/18 00:02:23;;;;;;;12.70;9.67;;;;;;;1.62;80.48;97650.67;2268625;78;21398;-77
2022/11/18 00:05:24;;;;;;;12.70;9.33;;;;;;;1.64;80.74;97648.59;2268753;78;20892;-78
2022/11/18 00:08:24;;;;;;;11.80;9.33;;;;;;;1.64;80.60;97652.45;2268363;78;20927;-76
2022/11/18 00:14:44;;;;;;;15.97;9.80;;;;;;;1.60;80.65;97641.62;2268580;78;21260;-77
2022/11/18 00:17:44;;;;;;;11.63;9.63;;;;;;;1.61;80.58;97644.66;2268861;78;20900;-80
2022/11/18 00:20:44;;;;;;;13.60;10.30;;;;;;;1.58;80.37;97648.42;2268825;78;20904;-78
2022/11/18 00:23:45;;;;;;;12.50;9.93;;;;;;;1.47;80.47;97648.13;2268822;78;21224;-77
2022/11/18 00:26:45;;;;;;;14.80;10.63;;;;;;;1.41;80.68;97648.37;2268767;78;20888;-76
2022/11/18 00:29:46;;;;;;;16.07;10.33;;;;;;;1.36;80.97;97650.81;2268665;78;20888;-79
2022/11/18 00:32:49;;;;;;;14.37;10.27;;;;;;;1.37;81.36;97642.27;2271296;78;20975;-77
2022/11/18 00:35:49;;;;;;;14.73;9.70;;;;;;;1.42;81.06;97648.83;2273178;78;20908;-79
2022/11/18 00:38:50;;;;;;;14.47;10.37;;;;;;;1.45;81.20;97650.20;2272836;78;20935;-77
2022/11/18 00:45:09;;;;;;;17.07;10.60;;;;;;;1.40;80.97;97647.91;2273035;78;21389;-78
2022/11/18 00:48:09;;;;;;;14.67;10.53;;;;;;;1.37;80.89;97661.97;2272969;78;20923;-78
2022/11/18 00:51:10;;;;;;;16.57;10.50;;;;;;;1.37;80.73;97659.39;2273140;78;20908;-77
2022/11/18 00:54:11;;;;;;;13.77;9.67;;;;;;;1.35;80.85;97657.20;2273236;78;21295;-79
2022/11/18 00:57:11;;;;;;;13.03;9.67;;;;;;;1.36;80.96;97662.38;2273081;78;20950;-79
2022/11/18 01:00:11;;;;;;;15.83;10.30;;;;;;;1.37;80.95;97665.41;2272966;78;20900;-78
2022/11/18 01:03:11;;;;;;;69.37;13.37;;;;;;;1.40;81.03;97672.34;2272617;78;20962;-77
2022/11/18 01:06:12;;;;;;;14.63;10.77;;;;;;;1.38;81.17;97669.72;2273199;78;20919;-78
2022/11/18 01:09:12;;;;;;;14.40;11.20;;;;;;;1.43;81.15;97672.02;2273042;78;20947;-77
2022/11/18 01:15:31;;;;;;;14.83;10.60;;;;;;;1.58;81.04;97683.15;2272985;78;20999;-77
2022/11/18 01:18:32;;;;;;;16.40;9.97;;;;;;;1.62;80.41;97677.26;2273235;78;20923;-77
2022/11/18 01:21:32;;;;;;;27.03;10.77;;;;;;;1.62;80.38;97679.83;2273158;78;20926;-79
2022/11/18 01:24:33;;;;;;;14.60;10.30;;;;;;;1.56;80.26;97679.25;2273413;78;21255;-79
2022/11/18 01:27:33;;;;;;;14.23;10.30;;;;;;;1.60;80.38;97680.20;2272864;78;20986;-77
2022/11/18 01:30:33;;;;;;;14.60;9.97;;;;;;;1.63;80.46;97676.44;2272521;78;20888;-78
2022/11/18 01:33:34;;;;;;;13.20;10.00;;;;;;;1.65;79.96;97672.20;2272448;78;20971;-78
2022/11/18 01:36:34;;;;;;;16.80;10.80;;;;;;;1.64;80.23;97674.31;2272962;78;20930;-78
2022/11/18 01:39:35;;;;;;;16.13;10.60;;;;;;;1.58;80.04;97672.86;2273242;78;20955;-77
2022/11/18 01:42:36;;;;;;;14.80;10.37;;;;;;;1.59;80.06;97675.89;2272735;78;20962;-79
2022/11/18 01:45:35;;;;;;;17.37;9.90;;;;;;;1.59;80.27;97668.17;2273088;78;20931;-77
2022/11/18 01:48:38;;;;;;;19.97;10.50;;;;;;;1.60;80.12;97663.48;2273202;78;20908;-77
2022/11/18 01:51:36;;;;;;;21.57;10.47;;;;;;;1.63;79.79;97659.72;2272928;78;21238;-79
2022/11/18 01:54:39;;;;;;;15.77;11.17;;;;;;;1.65;79.87;97658.05;2272815;78;20868;-78
2022/11/18 01:57:39;;;;;;;15.57;10.20;;;;;;;1.71;80.13;97653.49;2272754;78;20919;-78
2022/11/18 02:00:40;;;;;;;12.87;9.67;;;;;;;1.70;79.77;97644.03;2272987;78;20946;-79
2022/11/18 02:03:41;;;;;;;12.50;9.77;;;;;;;1.60;79.62;97640.34;2272852;78;20970;-77
2022/11/18 02:06:41;;;;;;;15.23;10.20;;;;;;;1.53;80.69;97625.15;2272906;78;20934;-79
2022/11/18 02:09:41;;;;;;;16.70;11.87;;;;;;;1.53;80.69;97625.15;2273128;78;20915;-77
2022/11/18 02:12:42;;;;;;;15.33;11.20;;;;;;;1.59;80.58;97612.88;2273185;78;20915;-77
2022/11/18 02:15:42;;;;;;;16.47;11.00;;;;;;;1.62;80.35;97606.94;2273056;78;21239;-77
2022/11/18 02:18:43;;;;;;;23.53;10.80;;;;;;;1.57;80.21;97601.67;2272994;78;20943;-78
2022/11/18 02:21:43;;;;;;;18.97;10.80;;;;;;;1.59;80.46;97597.44;2273279;78;20868;-78
2022/11/18 02:24:45;;;;;;;13.93;10.27;;;;;;;1.64;80.43;97586.86;2272877;78;20962;-76
2022/11/18 02:27:46;;;;;;;16.70;10.07;;;;;;;1.60;80.21;97578.61;2272561;78;20981;-77
2022/11/18 02:30:46;;;;;;;15.77;9.80;;;;;;;1.55;79.94;97590.06;2272870;78;21097;-77
2022/11/18 02:33:47;;;;;;;13.80;10.13;;;;;;;1.49;79.63;97585.16;2268366;78;21303;-77
2022/11/18 02:36:47;;;;;;;14.03;11.17;;;;;;;1.44;79.48;97586.74;2267840;78;20868;-78
2022/11/18 02:39:48;;;;;;;17.73;10.80;;;;;;;1.38;79.29;97591.30;2268142;78;20959;-79
2022/11/18 02:42:48;;;;;;;16.07;9.87;;;;;;;1.32;79.77;97598.84;2268067;78;21283;-78
2022/11/18 02:45:48;;;;;;;16.37;10.10;;;;;;;1.33;79.88;97604.45;2267756;78;20932;-79
2022/11/18 02:48:49;;;;;;;13.83;9.93;;;;;;;1.32;79.97;97594.98;2268989;78;20963;-77
2022/11/18 02:51:49;;;;;;;21.13;11.47;;;;;;;1.31;80.21;97593.66;2268954;78;21267;-78
2022/11/18 02:54:50;;;;;;;16.67;10.30;;;;;;;1.28;79.85;97596.60;2269075;78;20900;-80
2022/11/18 02:57:50;;;;;;;13.47;9.87;;;;;;;1.28;79.69;97591.46;2269004;78;20896;-78
2022/11/18 03:00:50;;;;;;;13.80;9.90;;;;;;;1.33;79.70;97583.00;2268902;78;21260;-77
2022/11/18 03:03:51;;;;;;;14.03;9.67;;;;;;;1.35;79.83;97585.20;2268511;78;21018;-77
2022/11/18 03:06:51;;;;;;;12.57;9.17;;;;;;;1.34;79.72;97583.47;2269009;78;20992;-79
2022/11/18 03:09:52;;;;;;;15.40;9.97;;;;;;;1.34;79.21;97592.46;2269032;78;20896;-77
2022/11/18 03:12:52;;;;;;;12.13;9.30;;;;;;;1.34;79.17;97588.60;2268800;78;20943;-77
2022/11/18 03:15:52;;;;;;;13.93;9.47;;;;;;;1.31;79.26;97585.95;2268399;78;20900;-78
2022/11/18 03:18:53;;;;;;;14.70;9.67;;;;;;;1.32;79.48;97578.69;2268970;78;20942;-77
2022/11/18 03:21:56;;;;;;;15.63;10.70;;;;;;;1.33;79.46;97581.72;2268707;78;21273;-77
2022/11/18 03:24:56;;;;;;;15.37;9.93;;;;;;;1.36;79.71;97585.66;2268678;78;20880;-76
2022/11/18 03:27:57;;;;;;;15.97;10.47;;;;;;;1.39;79.50;97584.45;2268601;78;20923;-77
2022/11/18 03:30:57;;;;;;;15.80;10.37;;;;;;;1.39;79.56;97580.60;2269134;78;20860;-77
2022/11/18 03:33:58;;;;;;;16.47;9.90;;;;;;;1.41;78.99;97583.67;2268419;78;21334;-78
2022/11/18 03:36:58;;;;;;;15.40;10.53;;;;;;;1.38;77.93;97587.45;2269127;78;20877;-78
2022/11/18 03:39:58;;;;;;;16.53;10.77;;;;;;;1.36;78.27;97582.67;2268650;78;20946;-80
2022/11/18 03:42:59;;;;;;;17.57;10.87;;;;;;;1.35;77.72;97572.34;2268908;78;20892;-77
2022/11/18 03:45:59;;;;;;;14.07;10.43;;;;;;;1.28;77.46;97571.31;2268783;78;20943;-77
2022/11/18 03:49:00;;;;;;;16.10;10.43;;;;;;;1.17;76.43;97566.28;2268976;78;20979;-77
2022/11/18 03:52:02;;;;;;;14.23;9.90;;;;;;;1.05;77.06;97568.52;2269017;78;20915;-78
2022/11/18 03:55:03;;;;;;;18.93;11.63;;;;;;;1.06;77.67;97567.27;2268732;78;20865;-79
2022/11/18 03:58:03;;;;;;;19.17;12.10;;;;;;;1.03;77.63;97565.90;2268911;78;20889;-78
2022/11/18 04:01:03;;;;;;;21.47;12.97;;;;;;;1.00;77.30;97570.95;2268806;78;20915;-77
2022/11/18 04:04:04;;;;;;;23.27;13.90;;;;;;;0.95;77.14;97573.39;2268651;78;21165;-78
2022/11/18 04:07:04;;;;;;;21.47;13.73;;;;;;;0.89;77.48;97568.48;2268139;78;20946;-77
2022/11/18 04:10:05;;;;;;;18.50;12.30;;;;;;;0.89;77.96;97568.48;2269218;78;20912;-78
2022/11/18 04:13:05;;;;;;;18.43;13.10;;;;;;;0.91;78.19;97563.84;2268808;78;21282;-78
2022/11/18 04:16:08;;;;;;;20.50;12.43;;;;;;;0.97;78.20;97559.71;2268727;78;20908;-77
2022/11/18 04:19:08;;;;;;;16.60;11.40;;;;;;;1.02;78.17;97557.73;2268751;78;20927;-77
2022/11/18 04:22:09;;;;;;;20.23;12.83;;;;;;;1.04;78.27;97558.64;2268879;78;20911;-77
2022/11/18 04:25:14;;;;;;;19.27;13.07;;;;;;;1.05;78.27;97552.67;2268236;78;21314;-77
2022/11/18 04:28:11;;;;;;;23.73;14.00;;;;;;;1.04;78.09;97547.08;2236350;78;20904;-77
2022/11/18 04:31:12;;;;;;;58.50;15.00;;;;;;;1.00;78.01;97551.68;2268536;78;21257;-77
2022/11/18 04:34:12;;;;;;;21.80;13.40;;;;;;;0.95;78.40;97551.96;2271691;78;21001;-78
2022/11/18 04:37:13;;;;;;;18.70;13.00;;;;;;;0.95;78.25;97554.53;2273002;78;20904;-77
2022/11/18 04:40:13;;;;;;;95.07;15.17;;;;;;;0.95;78.14;97558.38;2272374;78;21571;-77
2022/11/18 04:43:13;;;;;;;16.50;12.70;;;;;;;0.95;78.14;97557.10;2271839;78;20927;-78
2022/11/18 04:46:14;;;;;;;19.53;12.47;;;;;;;0.97;78.39;97545.58;2272004;78;20946;-78
2022/11/18 04:49:14;;;;;;;19.30;10.90;;;;;;;0.98;77.78;97541.77;2272323;78;20970;-78
2022/11/18 04:52:15;;;;;;;15.67;11.07;;;;;;;0.94;77.54;97542.52;2271278;78;20908;-77
2022/11/18 04:55:15;;;;;;;21.30;12.67;;;;;;;0.90;77.72;97547.11;2270957;78;20911;-77
2022/11/18 04:58:16;;;;;;;15.93;11.77;;;;;;;0.87;77.91;97536.33;2270103;78;20893;-78
2022/11/18 05:01:16;;;;;;;17.20;11.30;;;;;;;0.86;78.02;97542.27;2270675;78;20951;-77
2022/11/18 05:04:17;;;;;;;16.03;11.47;;;;;;;0.85;77.58;97555.06;2270288;78;20959;-78
2022/11/18 05:07:17;;;;;;;18.83;11.90;;;;;;;0.77;77.64;97562.95;2269956;78;20931;-78
2022/11/18 05:10:18;;;;;;;30.57;11.53;;;;;;;0.71;77.73;97569.20;2270139;78;20908;-78
2022/11/18 05:13:18;;;;;;;14.80;10.93;;;;;;;0.70;77.95;97572.18;2271389;78;20903;-78
2022/11/18 05:16:18;;;;;;;15.10;10.80;;;;;;;0.73;77.87;97579.10;2270848;78;21311;-78
2022/11/18 05:19:19;;;;;;;16.77;12.20;;;;;;;0.74;77.96;97575.70;2271138;78;20899;-78
2022/11/18 05:22:19;;;;;;;27.80;12.97;;;;;;;0.78;78.21;97573.69;2270819;78;20932;-77
2022/11/18 05:25:20;;;;;;;15.10;12.20;;;;;;;0.80;77.80;97579.33;2271356;78;20896;-78
2022/11/18 05:28:20;;;;;;;18.87;13.53;;;;;;;0.76;77.66;97574.93;2271249;78;21301;-77
2022/11/18 05:31:20;;;;;;;16.87;13.00;;;;;;;0.76;77.78;97574.06;2271515;78;20938;-78
2022/11/18 05:34:21;;;;;;;32.07;16.00;;;;;;;0.68;77.91;97574.24;2267261;78;20959;-79
2022/11/18 05:37:21;;;;;;;21.10;14.43;;;;;;;0.68;77.91;97574.24;2267608;78;20904;-78
2022/11/18 05:40:22;;;;;;;22.43;16.43;;;;;;;0.57;78.28;97580.34;2267174;78;20900;-77
2022/11/18 05:43:22;;;;;;;59.03;16.47;;;;;;;0.47;78.29;97582.16;2267947;78;20907;-78
2022/11/18 05:46:22;;;;;;;20.93;16.00;;;;;;;0.36;78.42;97589.95;2267541;78;20915;-77
2022/11/18 05:49:23;;;;;;;21.27;15.03;;;;;;;0.28;78.48;97585.86;2267266;78;20900;-78
2022/11/18 05:52:23;;;;;;;24.57;16.27;;;;;;;0.21;78.83;97591.61;2267511;78;20943;-77
2022/11/18 05:55:24;;;;;;;22.93;17.87;;;;;;;0.16;79.26;97590.59;2267043;78;21308;-77
2022/11/18 05:58:24;;;;;;;26.50;18.30;;;;;;;0.12;79.01;97596.45;2266142;78;20991;-77
2022/11/18 06:01:24;;;;;;;21.60;17.03;;;;;;;0.04;79.69;97596.61;2266054;78;20885;-76
2022/11/18 06:04:25;;;;;;;24.87;18.10;;;;;;;-0.04;79.36;97611.31;2265804;78;20945;-76
2022/11/18 06:07:25;;;;;;;23.67;18.33;;;;;;;-0.09;79.28;97615.41;2266153;78;20912;-78
2022/11/18 06:10:26;;;;;;;27.67;19.00;;;;;;;-0.09;79.17;97616.70;2265863;78;20928;-76
2022/11/18 06:13:26;;;;;;;25.27;17.20;;;;;;;-0.09;78.90;97620.55;2265023;78;21603;-78
2022/11/18 06:16:27;;;;;;;57.07;19.57;;;;;;;-0.10;79.23;97626.50;2265538;78;20892;-77
2022/11/18 06:19:27;;;;;;;31.33;16.90;;;;;;;-0.04;79.32;97625.83;2265745;78;20888;-78
2022/11/18 06:22:27;;;;;;;27.50;17.87;;;;;;;-0.02;78.50;97629.32;2266253;78;20956;-79
2022/11/18 06:25:28;;;;;;;21.53;16.03;;;;;;;-0.04;78.84;97636.96;2265840;78;21017;-78
2022/11/18 06:28:28;;;;;;;30.43;16.63;;;;;;;-0.03;78.54;97643.84;2265810;78;20998;-79
2022/11/18 06:31:29;;;;;;;24.97;16.63;;;;;;;-0.04;78.56;97638.25;2265413;78;21074;-77
2022/11/18 06:34:30;;;;;;;30.03;16.47;;;;;;;0.04;78.17;97640.23;2265419;78;21354;-78
2022/11/18 06:37:30;;;;;;;38.27;17.60;;;;;;;0.09;78.45;97635.72;2265498;78;20904;-78
2022/11/18 06:40:31;;;;;;;27.57;19.80;;;;;;;0.10;78.25;97641.72;2265843;78;20876;-78
2022/11/18 06:43:42;;;;;;;22.30;15.83;;;;;;;0.10;77.84;97646.44;2233916;78;20903;-77
2022/11/18 06:46:55;;;;;;;29.87;16.87;;;;;;;-0.02;77.39;97653.28;2266061;78;20943;-78
2022/11/18 06:49:55;;;;;;;78.40;46.60;;;;;;;-0.11;77.56;97655.94;2267760;78;21256;-78
2022/11/18 06:52:55;;;;;;;37.67;27.87;;;;;;;-0.16;77.79;97655.78;2268382;78;20927;-78
2022/11/18 06:55:56;;;;;;;27.13;19.40;;;;;;;-0.21;77.24;97655.16;2266069;78;21401;-78
2022/11/18 06:58:56;;;;;;;25.03;17.17;;;;;;;-0.23;77.58;97656.80;2266481;79;21309;-78
2022/11/18 07:01:57;;;;;;;34.60;15.87;;;;;;;-0.21;77.76;97662.45;2266749;78;20908;-79
2022/11/18 07:04:57;;;;;;;61.40;17.73;;;;;;;-0.22;77.17;97656.86;2265566;78;21006;-78
2022/11/18 07:07:58;;;;;;;18.03;14.40;;;;;;;-0.24;76.72;97661.47;2266550;78;21708;-78
2022/11/18 07:11:00;;;;;;;18.37;13.43;;;;;;;-0.32;76.52;97665.92;2235295;78;20864;-80
2022/11/18 07:14:01;;;;;;;63.40;17.23;;;;;;;-0.43;75.57;97657.39;2267032;78;21314;-76
2022/11/18 07:17:01;;;;;;;25.30;18.23;;;;;;;-0.51;75.43;97653.68;2266596;78;20876;-79
2022/11/18 07:20:01;;;;;;;55.30;37.13;;;;;;;-0.53;75.85;97668.13;2267148;78;20951;-78
2022/11/18 07:23:01;;;;;;;24.43;19.47;;;;;;;-0.54;76.16;97670.23;2267137;78;20919;-77
2022/11/18 07:26:02;;;;;;;18.77;14.47;;;;;;;-0.57;75.77;97680.38;2266956;78;20967;-76
2022/11/18 07:29:02;;;;;;;22.97;15.47;;;;;;;-0.59;75.78;97672.62;2267202;78;20931;-78
2022/11/18 07:32:03;;;;;;;58.40;27.17;;;;;;;-0.62;75.67;97683.17;2267187;78;20950;-78
2022/11/18 07:35:03;;;;;;;67.30;36.07;;;;;;;-0.65;74.59;97679.69;2266914;78;20972;-78
2022/11/18 07:38:03;;;;;;;22.80;16.47;;;;;;;-0.66;74.86;97680.91;2267392;78;20904;-79
2022/11/18 07:41:04;;;;;;;19.70;13.03;;;;;;;-0.61;74.39;97690.05;2266775;78;20888;-78
2022/11/18 07:44:06;;;;;;;18.90;13.23;;;;;;;-0.65;74.33;97676.25;2266319;78;20952;-78
2022/11/18 07:47:05;;;;;;;51.93;26.93;;;;;;;-0.65;74.15;97671.13;2265946;78;20896;-78
2022/11/18 07:50:05;;;;;;;30.13;16.30;;;;;;;-0.66;74.45;97673.22;2266348;78;20984;-79
2022/11/18 07:53:06;;;;;;;72.47;20.50;;;;;;;-0.65;73.83;97671.99;2266404;78;20950;-79
2022/11/18 07:56:06;;;;;;;44.87;22.33;;;;;;;-0.61;74.13;97675.55;2266506;78;20923;-77
2022/11/18 07:59:06;;;;;;;66.07;28.03;;;;;;;-0.61;73.17;97674.67;2266247;78;21302;-78
2022/11/18 08:02:07;;;;;;;84.40;19.87;;;;;;;-0.63;73.11;97678.87;2266167;78;20932;-79
2022/11/18 08:05:07;;;;;;;63.60;23.63;;;;;;;-0.60;73.73;97676.41;2266355;78;20995;-78
2022/11/18 08:08:08;;;;;;;91.37;32.40;;;;;;;-0.47;73.25;97673.48;2267092;78;20967;-78
2022/11/18 08:11:08;;;;;;;22.90;14.57;;;;;;;-0.41;73.16;97680.98;2267598;78;20907;-78
2022/11/18 08:14:09;;;;;;;16.10;12.50;;;;;;;-0.39;72.48;97669.09;2267362;78;20943;-78
2022/11/18 08:17:10;;;;;;;38.60;13.77;;;;;;;-0.34;72.58;97674.38;2266230;78;20963;-79
2022/11/18 08:20:10;;;;;;;15.47;11.57;;;;;;;-0.41;71.15;97679.70;2266988;78;20956;-82
2022/11/18 08:23:11;;;;;;;16.37;12.03;;;;;;;-0.41;71.15;97679.70;2266879;78;20936;-79
2022/11/18 08:26:12;;;;;;;38.17;19.13;;;;;;;-0.42;71.22;97674.52;2267030;78;20944;-79
2022/11/18 08:29:11;;;;;;;17.63;11.53;;;;;;;-0.43;71.34;97669.80;2268073;78;20951;-80
2022/11/18 08:32:12;;;;;;;14.80;11.27;;;;;;;-0.51;70.11;97665.21;2267879;78;20920;-78
2022/11/18 08:35:12;;;;;;;36.73;15.87;;;;;;;-0.57;70.53;97663.30;2267318;78;21100;-79
2022/11/18 08:38:13;;;;;;;20.47;12.87;;;;;;;-0.52;70.28;97654.50;2267521;78;21127;-78
2022/11/18 08:41:13;;;;;;;25.10;12.97;;;;;;;-0.46;69.19;97653.02;2267314;78;21306;-78
2022/11/18 08:44:13;;;;;;;17.03;11.77;;;;;;;-0.42;68.55;97664.26;2267702;78;20927;-79
2022/11/18 08:47:14;;;;;;;24.93;12.00;;;;;;;-0.48;68.73;97646.97;2267509;78;20899;-78
2022/11/18 08:50:14;;;;;;;16.10;12.80;;;;;;;-0.42;69.80;97654.00;2265671;78;20907;-78
2022/11/18 08:53:15;;;;;;;21.23;14.47;;;;;;;-0.32;69.13;97659.51;2265965;78;20923;-78
2022/11/18 08:56:15;;;;;;;27.47;15.40;;;;;;;-0.33;68.38;97656.89;2266493;78;20920;-79
2022/11/18 08:59:16;;;;;;;18.97;14.10;;;;;;;-0.22;68.00;97656.86;2266535;78;20888;-79
2022/11/18 09:02:16;;;;;;;56.60;16.80;;;;;;;-0.15;68.15;97666.51;2265991;78;20943;-78
2022/11/18 09:05:16;;;;;;;22.43;15.23;;;;;;;-0.15;67.42;97674.20;2265995;78;20999;-79
2022/11/18 09:08:17;;;;;;;20.30;15.17;;;;;;;-0.10;68.07;97678.20;2266945;78;20978;-79
2022/11/18 09:11:17;;;;;;;20.23;13.27;;;;;;;0.01;68.41;97679.48;2266978;78;20904;-79
2022/11/18 09:14:18;;;;;;;21.67;14.60;;;;;;;0.13;68.71;97682.47;2266750;78;20883;-79
2022/11/18 09:17:18;;;;;;;51.47;15.97;;;;;;;0.24;67.75;97680.25;2266664;78;21314;-78
2022/11/18 09:20:19;;;;;;;28.20;15.40;;;;;;;0.39;67.56;97687.18;2266010;78;20955;-78
2022/11/18 09:23:19;;;;;;;23.00;15.30;;;;;;;0.42;64.85;97679.58;2266504;78;20880;-79
2022/11/18 09:26:22;;;;;;;21.87;16.33;;;;;;;0.46;66.35;97685.69;2266875;78;20903;-81
2022/11/18 09:29:25;;;;;;;51.93;17.47;;;;;;;0.52;64.71;97681.63;2266338;78;21413;-80
2022/11/18 09:32:23;;;;;;;24.73;17.10;;;;;;;0.61;66.45;97687.05;2266650;78;20916;-79
2022/11/18 09:35:23;;;;;;;31.03;16.37;;;;;;;0.74;65.13;97684.87;2269599;78;20995;-79
2022/11/18 09:38:24;;;;;;;23.23;17.40;;;;;;;0.81;65.50;97686.80;2270960;78;20884;-79
2022/11/18 09:41:24;;;;;;;24.77;17.40;;;;;;;0.91;65.26;97685.89;2270840;78;21362;-79
2022/11/18 09:44:25;;;;;;;21.40;16.60;;;;;;;1.02;65.31;97682.77;2271199;78;20933;-78
2022/11/18 09:47:25;;;;;;;23.20;17.67;;;;;;;1.07;65.82;97682.09;2271156;78;20944;-79
2022/11/18 09:50:26;;;;;;;22.43;16.90;;;;;;;1.09;64.17;97681.72;2271800;78;20908;-79
2022/11/18 09:53:26;;;;;;;21.83;16.60;;;;;;;1.02;64.41;97679.79;2270717;78;20947;-79
2022/11/18 09:56:27;;;;;;;21.67;16.23;;;;;;;1.06;63.75;97691.03;2270851;78;20903;-78
2022/11/18 09:59:29;;;;;;;24.83;18.67;;;;;;;1.07;64.06;97685.07;2242772;78;21354;-78
2022/11/18 10:02:29;;;;;;;24.53;18.70;;;;;;;1.11;64.26;97684.34;2271083;78;20872;-79
2022/11/18 10:05:30;;;;;;;27.60;17.23;;;;;;;1.11;64.26;97684.34;2271126;78;20987;-78
2022/11/18 10:08:30;;;;;;;27.47;19.07;;;;;;;1.21;64.32;97692.37;2270397;78;20916;-78
2022/11/18 10:11:30;;;;;;;25.97;18.30;;;;;;;1.23;64.94;97689.84;2270965;78;21350;-78
2022/11/18 10:14:31;;;;;;;55.33;20.13;;;;;;;1.33;63.72;97697.00;2270798;78;21108;-81
2022/11/18 10:17:32;;;;;;;25.30;18.53;;;;;;;1.24;64.09;97702.74;2271473;78;20911;-79
2022/11/18 10:20:32;;;;;;;29.37;18.57;;;;;;;1.19;64.43;97699.16;2272726;78;20923;-78
2022/11/18 10:23:32;;;;;;;28.23;20.40;;;;;;;1.17;64.13;97702.09;2271507;78;20888;-77
2022/11/18 10:26:33;;;;;;;32.23;19.97;;;;;;;1.09;64.28;97699.71;2271443;78;20916;-78
2022/11/18 10:29:33;;;;;;;69.67;21.10;;;;;;;0.89;64.99;97704.23;2271895;78;20907;-79
2022/11/18 10:32:34;;;;;;;29.63;19.73;;;;;;;0.68;64.95;97697.52;2270826;78;20920;-78
2022/11/18 10:35:34;;;;;;;28.63;20.53;;;;;;;0.60;64.94;97704.98;2267016;78;21382;-79
2022/11/18 10:38:34;;;;;;;36.20;19.77;;;;;;;0.31;65.99;97710.03;2266365;78;20916;-79
2022/11/18 10:41:35;;;;;;;29.17;19.83;;;;;;;0.31;65.99;97710.03;2266390;78;21144;-79
2022/11/18 10:44:35;;;;;;;29.37;20.10;;;;;;;0.30;66.75;97710.85;2266847;78;21346;-79
2022/11/18 10:47:36;;;;;;;31.17;19.93;;;;;;;0.30;66.70;97714.70;2267494;78;21315;-80
2022/11/18 10:50:36;;;;;;;40.40;22.87;;;;;;;0.16;67.28;97717.20;2267739;78;20956;-77
2022/11/18 10:53:37;;;;;;;35.57;21.13;;;;;;;-0.02;67.87;97717.41;2268156;78;20881;-79
2022/11/18 10:56:37;;;;;;;389.93;39.87;;;;;;;-0.15;68.07;97717.80;2267712;78;21409;-81
2022/11/18 10:59:40;;;;;;;38.10;20.97;;;;;;;-0.19;68.89;97712.11;2267264;78;21077;-78
2022/11/18 11:02:41;;;;;;;25.73;18.27;;;;;;;-0.10;68.65;97723.09;2266746;78;20931;-79
2022/11/18 11:05:41;;;;;;;37.97;20.47;;;;;;;-0.11;68.80;97725.20;2266580;78;21018;-77
2022/11/18 11:08:41;;;;;;;30.23;19.77;;;;;;;-0.11;68.14;97715.81;2267069;78;20944;-79
2022/11/18 11:11:42;;;;;;;24.30;17.77;;;;;;;-0.17;68.34;97730.98;2267030;78;21279;-82
2022/11/18 11:14:42;;;;;;;31.37;19.50;;;;;;;-0.19;68.52;97725.34;2266887;78;20939;-78
2022/11/18 11:17:43;;;;;;;41.20;22.60;;;;;;;-0.13;68.60;97722.98;2267396;78;20904;-78
2022/11/18 11:20:43;;;;;;;38.70;22.53;;;;;;;-0.08;69.04;97725.31;2267147;78;21070;-80
2022/11/18 11:23:44;;;;;;;33.27;20.57;;;;;;;0.03;68.66;97725.30;2266799;78;20983;-78
2022/11/18 11:26:44;;;;;;;30.17;20.57;;;;;;;0.11;68.63;97724.29;2267424;78;20872;-78
2022/11/18 11:29:44;;;;;;;30.03;19.47;;;;;;;0.05;68.84;97712.53;2267908;78;20939;-78
2022/11/18 11:32:45;;;;;;;31.27;20.20;;;;;;;0.14;68.54;97719.27;2267304;78;20919;-78
2022/11/18 11:35:45;;;;;;;64.90;20.80;;;;;;;0.20;68.86;97708.80;2270697;78;21018;-80
2022/11/18 11:38:46;;;;;;;26.80;18.20;;;;;;;0.35;69.06;97708.44;2273016;78;20908;-79
2022/11/18 11:41:46;;;;;;;32.77;19.63;;;;;;;0.56;68.12;97716.84;2272481;78;20911;-79
2022/11/18 11:44:47;;;;;;;27.10;18.10;;;;;;;0.68;68.30;97718.06;2272667;78;20907;-79
2022/11/18 11:47:48;;;;;;;116.97;21.70;;;;;;;0.54;67.93;97717.62;2272466;78;21014;-79
2022/11/18 11:50:54;;;;;;;36.17;19.77;;;;;;;0.32;67.28;97721.17;2272651;78;20919;-78
2022/11/18 11:53:54;;;;;;;26.53;18.40;;;;;;;0.27;68.23;97725.27;2272755;78;20974;-80
2022/11/18 11:56:54;;;;;;;28.67;16.60;;;;;;;0.36;68.40;97721.73;2273159;78;20891;-78
2022/11/18 11:59:55;;;;;;;26.00;17.60;;;;;;;0.41;67.53;97713.77;2272518;78;20888;-80
2022/11/18 12:02:55;;;;;;;176.37;29.07;;;;;;;0.38;67.58;97714.08;2272434;78;20947;-79
2022/11/18 12:05:56;;;;;;;39.70;19.40;;;;;;;0.26;67.78;97714.55;2270897;78;21405;-77
2022/11/18 12:08:56;;;;;;;29.20;17.07;;;;;;;0.11;67.60;97712.33;2271289;78;21409;-79
2022/11/18 12:11:56;;;;;;;30.43;17.13;;;;;;;0.08;67.58;97711.35;2271810;78;21283;-79
2022/11/18 12:14:57;;;;;;;32.27;18.77;;;;;;;0.10;68.11;97713.56;2271668;78;20920;-78
2022/11/18 12:17:57;;;;;;;41.67;19.13;;;;;;;0.09;68.16;97714.38;2270884;78;20923;-81
2022/11/18 12:20:58;;;;;;;33.93;20.70;;;;;;;0.21;68.58;97710.54;2270861;78;20892;-77
2022/11/18 12:23:58;;;;;;;33.70;19.50;;;;;;;0.30;68.57;97705.72;2270584;78;21322;-79
2022/11/18 12:26:58;;;;;;;30.27;19.33;;;;;;;0.38;68.40;97699.97;2270494;78;20912;-78
2022/11/18 12:30:00;;;;;;;29.77;20.27;;;;;;;0.43;68.65;97699.30;2271054;78;20908;-78
2022/11/18 12:32:59;;;;;;;27.80;19.80;;;;;;;0.44;68.07;97706.17;2271210;78;20939;-78
2022/11/18 12:36:00;;;;;;;33.17;21.67;;;;;;;0.48;67.86;97695.18;2270326;78;20991;-78
2022/11/18 12:39:00;;;;;;;40.13;22.17;;;;;;;0.51;67.92;97700.42;2271081;78;21240;-79
2022/11/18 12:45:19;;;;;;;40.27;23.57;;;;;;;0.43;67.85;97705.71;2271581;78;20936;-78
2022/11/18 12:48:20;;;;;;;104.53;25.97;;;;;;;0.29;68.16;97705.66;2270926;78;21318;-80
2022/11/18 12:51:20;;;;;;;34.57;19.90;;;;;;;0.28;67.86;97712.49;2271659;78;20903;-79
2022/11/18 12:54:20;;;;;;;32.17;19.17;;;;;;;0.34;67.20;97705.41;2270956;78;20896;-78
2022/11/18 12:57:21;;;;;;;29.87;19.53;;;;;;;0.48;67.13;97705.86;2270759;78;20876;-79
2022/11/18 13:00:21;;;;;;;34.53;22.30;;;;;;;0.54;68.16;97698.36;2270045;78;20931;-78
2022/11/18 13:03:23;;;;;;;33.37;22.07;;;;;;;0.49;67.72;97704.63;2270656;78;20892;-79
2022/11/18 13:06:22;;;;;;;39.33;21.57;;;;;;;0.43;68.66;97708.28;2271469;78;21367;-78
2022/11/18 13:09:23;;;;;;;32.77;20.40;;;;;;;0.37;68.64;97717.06;2271211;78;21362;-78
2022/11/18 13:12:23;;;;;;;36.27;21.93;;;;;;;0.20;67.47;97721.63;2269497;78;20964;-78
2022/11/18 13:18:42;;;;;;;33.87;22.17;;;;;;;-0.09;67.62;97738.54;2269803;78;20942;-78
2022/11/18 13:25:02;;;;;;;48.70;27.03;;;;;;;-0.27;69.16;97746.86;2269013;78;20955;-75
2022/11/18 13:28:02;;;;;;;50.90;24.77;;;;;;;-0.35;69.24;97746.58;2268866;78;20943;-79
2022/11/18 13:31:02;;;;;;;950.20;100.47;;;;;;;-0.38;69.39;97740.47;2268748;78;20892;-76
2022/11/18 13:34:03;;;;;;;48.13;27.17;;;;;;;-0.39;69.73;97746.41;2268873;78;20896;-79
2022/11/18 13:37:03;;;;;;;65.03;27.80;;;;;;;-0.49;69.83;97740.48;2269483;78;21369;-78
2022/11/18 13:40:03;;;;;;;51.60;29.30;;;;;;;-0.61;70.44;97757.56;2270340;78;20963;-79
2022/11/18 13:43:04;;;;;;;48.20;26.20;;;;;;;-0.74;70.87;97760.06;2271310;78;20912;-80
2022/11/18 13:46:04;;;;;;;57.77;25.03;;;;;;;-0.84;71.23;97763.49;2271442;78;20939;-79
2022/11/18 13:49:05;;;;;;;42.90;24.90;;;;;;;-0.90;71.53;97766.66;2271458;78;21323;-78
2022/11/18 13:52:07;;;;;;;55.17;23.10;;;;;;;-0.96;71.74;97772.82;2242298;78;20899;-78
2022/11/18 13:55:08;;;;;;;34.77;21.90;;;;;;;-0.98;71.87;97771.89;2270180;78;21603;-78
2022/11/18 13:58:08;;;;;;;36.80;21.37;;;;;;;-0.98;71.31;97774.05;2270170;78;20904;-78
2022/11/18 14:01:08;;;;;;;40.60;19.20;;;;;;;-0.97;71.38;97771.08;2270885;78;20931;-78
2022/11/18 14:04:13;;;;;;;41.97;19.13;;;;;;;-1.02;70.35;97775.14;2271368;78;20946;-79
2022/11/18 14:07:11;;;;;;;37.37;21.63;;;;;;;-1.03;70.74;97777.23;2242663;78;20991;-79
2022/11/18 14:10:11;;;;;;;31.90;18.80;;;;;;;-0.99;70.74;97779.98;2270802;78;20939;-77
2022/11/18 14:13:12;;;;;;;26.17;17.73;;;;;;;-0.96;70.75;97786.50;2269959;78;20962;-79
2022/11/18 14:16:12;;;;;;;29.60;16.53;;;;;;;-0.97;70.70;97786.45;2270889;78;20864;-79
2022/11/18 14:19:13;;;;;;;33.10;19.33;;;;;;;-0.97;71.22;97791.56;2271129;78;20974;-79